createdAt,value
2023-01-03T00:00:43.959Z,84.10
2023-01-03T00:03:14.234Z,84.20
2023-01-03T00:05:42.581Z,84.20
2023-01-03T00:08:09.428Z,84.20
2023-01-03T00:10:36.031Z,84.10
2023-01-03T00:13:02.677Z,84.00
2023-01-03T00:15:29.292Z,84.00
2023-01-03T00:17:56.192Z,84.00
2023-01-03T00:20:22.948Z,84.00
2023-01-03T00:22:49.513Z,84.00
2023-01-03T00:25:16.321Z,84.00
2023-01-03T00:27:43.518Z,83.90
2023-01-03T00:30:10.368Z,83.70
2023-01-03T00:32:36.921Z,83.60
2023-01-03T00:35:05.500Z,83.70
2023-01-03T00:37:32.449Z,83.80
2023-01-03T00:39:59.057Z,83.90
2023-01-03T00:42:26.011Z,84.80
2023-01-03T00:44:52.702Z,84.10
2023-01-03T00:47:19.786Z,84.20
2023-01-03T00:49:46.387Z,84.10
2023-01-03T00:52:13.023Z,84.10
2023-01-03T00:54:39.664Z,84.90
2023-01-03T00:57:06.356Z,84.00
2023-01-03T00:59:32.976Z,84.00
2023-01-03T01:01:59.929Z,84.00
2023-01-03T01:04:28.848Z,83.90
2023-01-03T01:06:57.202Z,83.80
2023-01-03T01:09:25.633Z,83.80
2023-01-03T01:11:52.768Z,83.80
2023-01-03T01:14:20.990Z,83.80
2023-01-03T01:16:50.268Z,84.60
2023-01-03T01:19:17.678Z,83.80
2023-01-03T01:21:44.741Z,83.90
2023-01-03T01:24:15.889Z,84.00
2023-01-03T01:26:44.872Z,84.10
2023-01-03T01:29:12.229Z,84.20
2023-01-03T01:31:40.455Z,84.20
2023-01-03T01:34:07.638Z,84.00
2023-01-03T01:36:37.513Z,83.80
2023-01-03T01:39:05.358Z,83.80
2023-01-03T01:41:51.829Z,83.80
2023-01-03T01:44:40.194Z,83.80
2023-01-03T01:47:33.117Z,83.80
2023-01-03T01:50:18.584Z,83.80
2023-01-03T01:53:08.719Z,83.80
2023-01-03T01:55:39.190Z,84.00
2023-01-03T01:58:06.820Z,84.00
2023-01-03T02:00:33.728Z,84.00
2023-01-03T02:03:00.699Z,84.10
2023-01-03T02:05:28.131Z,84.00
2023-01-03T02:07:55.431Z,84.00
2023-01-03T02:10:30.108Z,84.10
2023-01-03T02:13:05.989Z,84.10
2023-01-03T02:15:35.621Z,84.10
2023-01-03T02:18:08.576Z,84.00
2023-01-03T02:20:54.072Z,83.90
2023-01-03T02:23:26.781Z,83.90
2023-01-03T02:26:08.706Z,83.90
2023-01-03T02:28:44.685Z,84.10
2023-01-03T02:31:37.937Z,84.10
2023-01-03T02:34:12.579Z,84.10
2023-01-03T02:36:47.724Z,84.10
2023-01-03T02:39:27.094Z,84.10
2023-01-03T02:42:22.689Z,84.10
2023-01-03T02:44:58.207Z,84.10
2023-01-03T02:47:26.272Z,84.10
2023-01-03T02:49:53.116Z,84.10
2023-01-03T02:52:23.544Z,84.20
2023-01-03T02:54:57.455Z,84.10
2023-01-03T02:57:31.315Z,84.00
2023-01-03T03:00:08.079Z,84.10
2023-01-03T03:02:36.477Z,83.90
2023-01-03T03:05:06.524Z,83.90
2023-01-03T03:07:35.085Z,84.00
2023-01-03T03:10:21.046Z,83.90
2023-01-03T03:13:08.094Z,84.00
2023-01-03T03:15:40.920Z,83.80
2023-01-03T03:18:11.691Z,83.90
2023-01-03T03:20:57.060Z,83.90
2023-01-03T03:23:45.428Z,84.10
2023-01-03T03:26:17.269Z,84.10
2023-01-03T03:28:47.372Z,84.10
2023-01-03T03:31:26.340Z,84.20
2023-01-03T03:33:56.237Z,84.10
2023-01-03T03:36:28.124Z,84.10
2023-01-03T03:38:54.763Z,84.00
2023-01-03T03:42:01.992Z,84.10
2023-01-03T03:45:01.049Z,84.20
2023-01-03T03:47:43.082Z,84.30
2023-01-03T03:50:25.147Z,84.40
2023-01-03T03:52:57.874Z,84.40
2023-01-03T03:55:30.412Z,84.40
2023-01-03T03:58:02.909Z,84.30
2023-01-03T04:00:31.463Z,84.20
2023-01-03T04:02:59.187Z,84.20
2023-01-03T04:05:27.517Z,84.10
2023-01-03T04:07:54.203Z,84.10
2023-01-03T04:10:23.511Z,84.30
2023-01-03T04:12:51.011Z,84.30
2023-01-03T04:15:18.325Z,84.30
2023-01-03T04:17:45.070Z,84.40
2023-01-03T04:20:12.491Z,84.40
2023-01-03T04:22:39.352Z,84.30
2023-01-03T04:25:06.583Z,84.30
2023-01-03T04:27:33.437Z,84.20
2023-01-03T04:30:00.233Z,84.20
2023-01-03T04:32:26.941Z,84.20
2023-01-03T04:34:53.691Z,84.30
2023-01-03T04:37:20.341Z,84.40
2023-01-03T04:39:47.002Z,84.50
2023-01-03T04:42:32.442Z,84.50
2023-01-03T04:45:00.112Z,84.50
2023-01-03T04:47:26.698Z,84.40
2023-01-03T04:49:53.308Z,84.40
2023-01-03T04:52:19.919Z,84.40
2023-01-03T04:54:47.231Z,84.50
2023-01-03T04:57:14.053Z,84.60
2023-01-03T04:59:40.806Z,84.60
2023-01-03T05:02:07.689Z,84.40
2023-01-03T05:04:34.608Z,84.40
2023-01-03T05:07:01.239Z,84.20
2023-01-03T05:09:27.979Z,84.20
2023-01-03T05:11:54.564Z,84.10
2023-01-03T05:14:21.203Z,84.00
2023-01-03T05:16:47.949Z,83.90
2023-01-03T05:19:14.759Z,83.90
2023-01-03T05:22:00.229Z,84.00
2023-01-03T05:24:45.685Z,84.00
2023-01-03T05:27:12.463Z,84.00
2023-01-03T05:29:39.254Z,84.10
2023-01-03T05:32:06.529Z,84.30
2023-01-03T05:34:33.250Z,84.30
2023-01-03T05:37:00.654Z,84.40
2023-01-03T05:39:27.489Z,84.40
2023-01-03T05:42:00.258Z,84.40
2023-01-03T05:44:33.629Z,84.60
2023-01-03T05:47:01.484Z,84.50
2023-01-03T05:49:28.196Z,84.50
2023-01-03T05:51:55.601Z,84.50
2023-01-03T05:54:22.355Z,84.40
2023-01-03T05:56:50.601Z,84.40
2023-01-03T05:59:17.519Z,84.40
2023-01-03T06:01:44.516Z,84.40
2023-01-03T06:04:11.295Z,84.30
2023-01-03T06:06:37.942Z,84.20
2023-01-03T06:09:04.616Z,84.20
2023-01-03T06:11:31.516Z,84.10
2023-01-03T06:13:58.334Z,84.10
2023-01-03T06:16:43.910Z,84.00
2023-01-03T06:19:11.059Z,84.00
2023-01-03T06:21:38.235Z,84.00
2023-01-03T06:24:05.395Z,84.10
2023-01-03T06:26:33.132Z,84.10
2023-01-03T06:29:00.116Z,84.20
2023-01-03T06:31:26.890Z,84.10
2023-01-03T06:33:53.821Z,84.10
2023-01-03T06:36:21.505Z,84.10
2023-01-03T06:38:48.184Z,84.00
2023-01-03T06:41:15.376Z,83.90
2023-01-03T06:43:42.402Z,84.00
2023-01-03T06:46:29.167Z,84.00
2023-01-03T06:49:16.475Z,84.00
2023-01-03T06:52:02.151Z,84.00
2023-01-03T06:54:29.894Z,84.00
2023-01-03T06:56:56.665Z,84.00
2023-01-03T06:59:23.694Z,84.00
2023-01-03T07:01:51.488Z,84.00
2023-01-03T07:04:19.053Z,83.90
2023-01-03T07:06:45.960Z,83.90
2023-01-03T07:09:13.007Z,83.90
2023-01-03T07:11:40.163Z,83.90
2023-01-03T07:14:07.658Z,83.80
2023-01-03T07:16:35.746Z,83.90
2023-01-03T07:19:03.517Z,83.80
2023-01-03T07:21:30.769Z,83.80
2023-01-03T07:23:58.741Z,83.80
2023-01-03T07:26:25.646Z,83.90
2023-01-03T07:28:52.309Z,83.90
2023-01-03T07:31:19.303Z,84.00
2023-01-03T07:33:46.023Z,84.10
2023-01-03T07:36:13.835Z,84.20
2023-01-03T07:38:41.515Z,84.00
2023-01-03T07:41:09.031Z,84.00
2023-01-03T07:43:39.525Z,84.00
2023-01-03T07:46:10.411Z,84.10
2023-01-03T07:48:37.671Z,84.00
2023-01-03T07:51:05.287Z,84.10
2023-01-03T07:53:32.341Z,84.00
2023-01-03T07:56:12.618Z,84.10
2023-01-03T07:58:43.966Z,84.00
2023-01-03T08:01:10.660Z,84.10
2023-01-03T08:03:38.244Z,84.00
2023-01-03T08:06:12.759Z,84.00
2023-01-03T08:08:42.334Z,84.10
2023-01-03T08:11:31.608Z,84.10
2023-01-03T08:13:58.937Z,84.20
2023-01-03T08:16:25.884Z,84.20
2023-01-03T08:18:53.113Z,84.20
2023-01-03T08:21:20.125Z,84.30
2023-01-03T08:23:48.834Z,84.30
2023-01-03T08:26:16.991Z,84.30
2023-01-03T08:28:44.194Z,84.30
2023-01-03T08:31:25.410Z,84.40
2023-01-03T08:33:54.161Z,84.60
2023-01-03T08:36:21.648Z,84.60
2023-01-03T08:38:51.541Z,84.70
2023-01-03T08:41:19.589Z,84.80
2023-01-03T08:43:46.986Z,84.70
2023-01-03T08:46:14.505Z,84.50
2023-01-03T08:48:41.440Z,84.50
2023-01-03T08:51:08.136Z,84.50
2023-01-03T08:53:34.833Z,84.50
2023-01-03T08:56:01.611Z,84.50
2023-01-03T08:58:28.396Z,84.50
2023-01-03T09:00:55.213Z,84.70
2023-01-03T09:03:21.895Z,84.70
2023-01-03T09:05:48.777Z,84.70
2023-01-03T09:08:16.014Z,84.60
2023-01-03T09:10:47.524Z,84.50
2023-01-03T09:13:14.697Z,84.50
2023-01-03T09:15:41.369Z,84.40
2023-01-03T09:18:08.828Z,84.30
2023-01-03T09:20:35.732Z,84.20
2023-01-03T09:23:02.516Z,84.20
2023-01-03T09:25:34.894Z,84.10
2023-01-03T09:28:03.718Z,84.00
2023-01-03T09:30:30.498Z,84.00
2023-01-03T09:32:57.315Z,83.90
2023-01-03T09:35:24.168Z,84.00
2023-01-03T09:37:50.936Z,84.00
2023-01-03T09:40:17.653Z,84.10
2023-01-03T09:43:03.359Z,84.20
2023-01-03T09:45:32.035Z,84.20
2023-01-03T09:47:59.657Z,84.30
2023-01-03T09:50:43.684Z,84.40
2023-01-03T09:53:40.762Z,84.40
2023-01-03T09:56:28.867Z,84.60
2023-01-03T09:59:17.404Z,84.70
2023-01-03T10:02:13.620Z,84.80
2023-01-03T10:04:55.897Z,84.90
2023-01-03T10:07:35.648Z,85.00
2023-01-03T10:10:02.515Z,85.00
2023-01-03T10:12:45.729Z,85.20
2023-01-03T10:15:27.718Z,85.30
2023-01-03T10:18:13.413Z,85.40
2023-01-03T10:20:43.479Z,85.60
2023-01-03T10:23:10.425Z,85.70
2023-01-03T10:25:42.258Z,85.80
2023-01-03T10:28:16.472Z,86.00
2023-01-03T10:30:59.528Z,86.10
2023-01-03T10:33:34.724Z,87.20
2023-01-03T10:36:01.698Z,86.60
2023-01-03T10:38:29.042Z,86.70
2023-01-03T10:41:00.007Z,86.80
2023-01-03T10:43:26.677Z,87.00
2023-01-03T10:46:01.253Z,87.00
2023-01-03T10:49:08.318Z,87.10
2023-01-03T10:51:42.549Z,87.10
2023-01-03T10:54:21.174Z,87.20
2023-01-03T10:56:48.697Z,87.30
2023-01-03T10:59:15.409Z,87.20
2023-01-03T11:02:01.116Z,87.30
2023-01-03T11:04:29.374Z,87.40
2023-01-03T11:06:59.205Z,88.30
2023-01-03T11:09:28.719Z,87.50
2023-01-03T11:12:02.419Z,87.50
2023-01-03T11:14:29.333Z,87.60
2023-01-03T11:16:56.013Z,87.70
2023-01-03T11:19:25.540Z,87.70
2023-01-03T11:21:55.974Z,87.80
2023-01-03T11:24:22.557Z,87.70
2023-01-03T11:26:58.420Z,87.60
2023-01-03T11:29:34.244Z,87.60
2023-01-03T11:32:21.576Z,87.70
2023-01-03T11:35:24.816Z,87.80
2023-01-03T11:37:52.184Z,87.90
2023-01-03T11:40:30.023Z,88.00
2023-01-03T11:43:02.819Z,88.30
2023-01-03T11:45:29.489Z,88.50
2023-01-03T11:47:56.079Z,88.50
2023-01-03T11:50:25.658Z,88.40
2023-01-03T11:52:56.501Z,88.40
2023-01-03T11:55:48.792Z,88.50
2023-01-03T11:58:15.609Z,88.60
2023-01-03T12:00:49.867Z,89.50
2023-01-03T12:03:46.309Z,88.70
2023-01-03T12:06:16.293Z,88.80
2023-01-03T12:08:43.191Z,88.90
2023-01-03T12:11:39.401Z,89.00
2023-01-03T12:14:19.643Z,89.10
2023-01-03T12:16:53.114Z,89.10
2023-01-03T12:19:19.791Z,89.10
2023-01-03T12:21:55.541Z,89.10
2023-01-03T12:24:28.388Z,89.10
2023-01-03T12:26:56.948Z,89.10
2023-01-03T12:29:26.667Z,89.20
2023-01-03T12:32:06.819Z,89.20
2023-01-03T12:34:39.669Z,89.20
2023-01-03T12:37:15.672Z,89.30
2023-01-03T12:39:42.416Z,89.40
2023-01-03T12:42:21.597Z,89.30
2023-01-03T12:44:54.165Z,89.30
2023-01-03T12:47:24.067Z,89.40
2023-01-03T12:49:58.092Z,89.40
2023-01-03T12:52:25.614Z,89.40
2023-01-03T12:54:59.654Z,89.30
2023-01-03T12:57:46.442Z,89.30
2023-01-03T13:00:32.908Z,89.40
2023-01-03T13:03:03.317Z,89.30
2023-01-03T13:05:49.481Z,89.30
2023-01-03T13:08:24.528Z,89.30
2023-01-03T13:10:53.437Z,89.20
2023-01-03T13:13:21.145Z,89.20
2023-01-03T13:15:48.611Z,89.10
2023-01-03T13:18:16.611Z,89.10
2023-01-03T13:20:47.966Z,89.10
2023-01-03T13:23:34.420Z,89.10
2023-01-03T13:26:07.287Z,89.10
2023-01-03T13:28:35.329Z,89.10
2023-01-03T13:31:14.407Z,89.10
2023-01-03T13:33:53.895Z,89.20
2023-01-03T13:36:20.595Z,89.20
2023-01-03T13:38:47.436Z,89.20
2023-01-03T13:41:26.523Z,89.10
2023-01-03T13:43:54.371Z,89.00
2023-01-03T13:46:25.048Z,89.00
2023-01-03T13:48:59.868Z,88.90
2023-01-03T13:51:32.719Z,89.00
2023-01-03T13:54:00.171Z,89.00
2023-01-03T13:56:28.588Z,89.00
2023-01-03T13:59:22.470Z,88.90
2023-01-03T14:02:09.710Z,88.90
2023-01-03T14:04:51.176Z,88.90
2023-01-03T14:07:27.049Z,88.90
2023-01-03T14:10:19.794Z,88.90
2023-01-03T14:13:01.171Z,88.80
2023-01-03T14:15:30.829Z,88.70
2023-01-03T14:18:07.084Z,88.80
2023-01-03T14:20:39.884Z,88.80
2023-01-03T14:23:31.674Z,88.80
2023-01-03T14:26:03.441Z,88.70
2023-01-03T14:28:32.079Z,88.70
2023-01-03T14:31:08.802Z,88.70
2023-01-03T14:33:54.484Z,88.70
2023-01-03T14:36:22.198Z,88.70
2023-01-03T14:38:54.233Z,88.60
2023-01-03T14:41:28.845Z,88.70
2023-01-03T14:44:14.775Z,88.70
2023-01-03T14:46:48.897Z,88.70
2023-01-03T14:49:24.503Z,88.70
2023-01-03T14:51:56.405Z,88.60
2023-01-03T14:54:23.438Z,88.50
2023-01-03T14:56:50.057Z,88.40
2023-01-03T14:59:19.576Z,88.40
2023-01-03T15:01:47.266Z,88.40
2023-01-03T15:04:15.955Z,88.30
2023-01-03T15:07:04.828Z,88.80
2023-01-03T15:09:34.641Z,88.30
2023-01-03T15:12:03.380Z,88.30
2023-01-03T15:14:31.650Z,88.20
2023-01-03T15:17:06.848Z,88.20
2023-01-03T15:19:34.135Z,88.20
2023-01-03T15:22:27.226Z,88.20
2023-01-03T15:25:01.905Z,88.20
2023-01-03T15:27:34.036Z,88.30
2023-01-03T15:30:14.268Z,88.20
2023-01-03T15:32:45.784Z,88.20
2023-01-03T15:35:33.077Z,88.20
2023-01-03T15:38:01.042Z,88.20
2023-01-03T15:40:29.468Z,88.20
2023-01-03T15:43:15.696Z,88.30
2023-01-03T15:45:42.565Z,88.30
2023-01-03T15:48:14.326Z,88.20
2023-01-03T15:50:47.720Z,88.10
2023-01-03T15:53:26.943Z,88.00
2023-01-03T15:55:59.346Z,88.00
2023-01-03T15:58:27.017Z,87.90
2023-01-03T16:00:54.323Z,88.70
2023-01-03T16:03:21.518Z,87.90
2023-01-03T16:05:48.322Z,87.80
2023-01-03T16:08:24.989Z,87.80
2023-01-03T16:10:51.984Z,87.80
2023-01-03T16:13:19.274Z,87.70
2023-01-03T16:15:46.072Z,87.70
2023-01-03T16:18:14.098Z,88.50
2023-01-03T16:20:40.916Z,87.70
2023-01-03T16:23:12.465Z,87.70
2023-01-03T16:25:39.150Z,87.70
2023-01-03T16:28:12.017Z,87.70
2023-01-03T16:30:39.300Z,87.70
2023-01-03T16:33:05.948Z,87.80
2023-01-03T16:35:32.622Z,88.80
2023-01-03T16:37:59.262Z,87.90
2023-01-03T16:40:26.002Z,87.80
2023-01-03T16:42:52.719Z,87.70
2023-01-03T16:45:19.518Z,87.70
2023-01-03T16:47:46.608Z,87.60
2023-01-03T16:50:18.662Z,87.60
2023-01-03T16:52:47.444Z,87.50
2023-01-03T16:55:20.127Z,87.60
2023-01-03T16:57:52.148Z,87.50
2023-01-03T17:00:22.363Z,87.50
2023-01-03T17:02:49.205Z,87.60
2023-01-03T17:05:16.276Z,87.60
2023-01-03T17:07:44.451Z,87.50
2023-01-03T17:10:31.774Z,87.60
2023-01-03T17:16:12.084Z,87.50
2023-01-03T17:18:41.998Z,87.40
2023-01-03T17:21:24.038Z,87.50
2023-01-03T17:23:54.347Z,87.40
2023-01-03T17:26:22.479Z,87.40
2023-01-03T17:28:49.807Z,87.30
2023-01-03T17:37:23.270Z,87.20
2023-01-03T17:39:53.715Z,87.20
2023-01-03T17:42:20.519Z,87.10
2023-01-03T17:45:06.776Z,87.00
2023-01-03T17:47:57.663Z,87.00
2023-01-03T17:50:24.596Z,87.00
2023-01-03T17:52:56.068Z,86.90
2023-01-03T17:55:24.526Z,87.00
2023-01-03T17:57:51.368Z,87.00
2023-01-03T18:00:19.616Z,86.90
2023-01-03T18:02:46.428Z,86.90
2023-01-03T18:05:24.507Z,87.00
2023-01-03T18:07:54.338Z,87.00
2023-01-03T18:10:32.802Z,87.00
2023-01-03T18:12:59.783Z,87.10
2023-01-03T18:15:26.488Z,86.90
2023-01-03T18:17:53.481Z,86.90
2023-01-03T18:20:20.595Z,86.90
2023-01-03T18:22:47.840Z,86.90
2023-01-03T18:25:22.490Z,86.90
2023-01-03T18:27:51.484Z,86.90
2023-01-03T18:30:20.864Z,86.90
2023-01-03T18:32:47.715Z,86.90
2023-01-03T18:35:19.326Z,86.90
2023-01-03T18:37:50.940Z,87.00
2023-01-03T18:40:19.403Z,86.90
2023-01-03T18:43:05.382Z,86.90
2023-01-03T18:45:32.402Z,86.90
2023-01-03T18:47:59.340Z,86.90
2023-01-03T18:50:26.889Z,86.90
2023-01-03T18:52:54.486Z,86.90
2023-01-03T18:55:26.378Z,87.00
2023-01-03T18:57:55.334Z,87.10
2023-01-03T19:00:25.582Z,87.00
2023-01-03T19:02:53.119Z,87.00
2023-01-03T19:05:20.101Z,87.00
2023-01-03T19:07:49.186Z,87.00
2023-01-03T19:10:21.118Z,86.90
2023-01-03T19:12:48.603Z,87.00
2023-01-03T19:15:20.393Z,86.90
2023-01-03T19:17:47.544Z,86.90
2023-01-03T19:20:14.896Z,86.90
2023-01-03T19:22:43.186Z,86.90
2023-01-03T19:25:15.768Z,86.90
2023-01-03T19:27:45.058Z,86.90
2023-01-03T19:30:18.410Z,86.90
2023-01-03T19:32:48.872Z,86.90
2023-01-03T19:35:15.725Z,87.00
2023-01-03T19:37:42.479Z,86.90
2023-01-03T19:40:12.746Z,86.90
2023-01-03T19:42:48.655Z,86.90
2023-01-03T19:45:15.727Z,87.90
2023-01-03T19:47:42.485Z,87.00
2023-01-03T19:50:17.781Z,87.00
2023-01-03T19:52:48.338Z,87.00
2023-01-03T19:55:15.615Z,87.00
2023-01-03T19:57:44.126Z,87.00
2023-01-03T20:00:21.919Z,87.00
2023-01-03T20:02:50.529Z,87.00
2023-01-03T20:05:19.333Z,87.00
2023-01-03T20:07:46.504Z,87.00
2023-01-03T20:10:21.006Z,87.00
2023-01-03T20:12:49.391Z,87.00
2023-01-03T20:15:29.790Z,87.00
2023-01-03T20:17:57.024Z,87.00
2023-01-03T20:20:25.246Z,87.00
2023-01-03T20:23:10.129Z,87.00
2023-01-03T20:25:37.503Z,87.00
2023-01-03T20:28:04.472Z,87.00
2023-01-03T20:30:32.364Z,87.00
2023-01-03T20:32:59.616Z,87.10
2023-01-03T20:38:16.793Z,87.20
2023-01-03T20:40:43.506Z,87.10
2023-01-03T20:43:13.624Z,87.10
2023-01-03T20:45:41.006Z,87.10
2023-01-03T20:48:12.839Z,87.10
2023-01-03T20:50:39.849Z,87.20
2023-01-03T20:53:06.702Z,87.30
2023-01-03T20:55:33.770Z,87.30
2023-01-03T20:58:03.386Z,87.20
2023-01-03T21:00:31.870Z,87.20
2023-01-03T21:03:02.032Z,87.20
2023-01-03T21:05:29.072Z,87.20
2023-01-03T21:08:17.362Z,87.20
2023-01-03T21:10:44.657Z,87.20
2023-01-03T21:13:11.623Z,87.20
2023-01-03T21:15:38.701Z,87.30
2023-01-03T21:18:06.347Z,87.20
2023-01-03T21:20:34.036Z,87.30
2023-01-03T21:23:00.934Z,87.30
2023-01-03T21:25:30.486Z,87.30
2023-01-03T21:27:58.980Z,87.30
2023-01-03T21:30:29.561Z,87.30
2023-01-03T21:32:56.678Z,87.40
2023-01-03T21:35:24.360Z,87.40
2023-01-03T21:37:54.016Z,87.40
2023-01-03T21:40:23.758Z,87.30
2023-01-03T21:43:04.224Z,87.20
2023-01-03T21:45:36.194Z,87.30
2023-01-03T21:48:05.004Z,87.20
2023-01-03T21:50:32.403Z,87.20
2023-01-03T21:52:59.142Z,87.20
2023-01-03T21:55:26.300Z,87.10
2023-01-03T21:57:52.990Z,87.10
2023-01-03T22:00:19.835Z,87.10
2023-01-03T22:03:05.781Z,87.10
2023-01-03T22:05:32.847Z,87.20
2023-01-03T22:08:03.029Z,87.10
2023-01-03T22:10:30.575Z,87.00
2023-01-03T22:12:58.931Z,87.10
2023-01-03T22:15:26.070Z,87.10
2023-01-03T22:17:53.145Z,87.00
2023-01-03T22:20:21.272Z,87.10
2023-01-03T22:26:57.220Z,87.00
2023-01-03T22:30:12.700Z,87.00
2023-01-03T22:32:40.262Z,87.00
2023-01-03T22:35:07.136Z,87.10
2023-01-03T22:37:35.456Z,87.10
2023-01-03T22:40:02.471Z,87.10
2023-01-03T22:42:30.041Z,87.00
2023-01-03T22:44:56.744Z,87.00
2023-01-03T22:47:24.049Z,87.00
2023-01-03T22:49:51.074Z,87.20
2023-01-03T22:52:18.146Z,87.20
2023-01-03T22:54:44.950Z,87.10
2023-01-03T22:57:12.078Z,87.10
2023-01-03T22:59:38.896Z,87.20
2023-01-03T23:02:05.900Z,87.20
2023-01-03T23:04:32.796Z,87.30
2023-01-03T23:06:59.608Z,87.20
2023-01-03T23:09:26.436Z,87.10
2023-01-03T23:12:11.925Z,87.10
2023-01-03T23:14:38.640Z,87.20
2023-01-03T23:17:24.157Z,87.20
2023-01-03T23:19:51.074Z,87.20
2023-01-03T23:22:17.871Z,87.10
2023-01-03T23:24:44.715Z,87.20
2023-01-03T23:27:11.440Z,87.30
2023-01-03T23:29:38.240Z,87.30
2023-01-03T23:32:05.265Z,87.40
2023-01-03T23:34:31.968Z,87.30
2023-01-03T23:36:58.562Z,87.30
2023-01-03T23:39:25.802Z,87.30
2023-01-03T23:41:52.514Z,87.30
2023-01-03T23:44:19.172Z,87.30
2023-01-03T23:46:48.123Z,87.30
2023-01-03T23:49:16.180Z,87.30
2023-01-03T23:51:43.103Z,87.30
2023-01-03T23:54:09.959Z,87.30
2023-01-03T23:56:36.674Z,87.30
2023-01-03T23:59:03.948Z,87.30
